sensor_id;sensor_type;location;lat;lon;timestamp;pressure;altitude;pressure_sealevel;temperature;humidity
47240;BME280;32978;53.586;10.052;2023-03-14T00:04:56;98785.59;;;10.23;100.00
47240;BME280;32978;53.586;10.052;2023-03-14T00:09:52;98793.41;;;10.21;100.00
47240;BME280;32978;53.586;10.052;2023-03-14T00:14:49;98801.72;;;10.09;100.00
47240;BME280;32978;53.586;10.052;2023-03-14T00:19:46;98825.19;;;10.10;100.00
47240;BME280;32978;53.586;10.052;2023-03-14T00:24:42;98811.81;;;10.05;100.00
47240;BME280;32978;53.586;10.052;2023-03-14T00:29:38;98815.25;;;10.02;100.00
47240;BME280;32978;53.586;10.052;2023-03-14T00:34:35;98784.66;;;10.12;100.00
47240;BME280;32978;53.586;10.052;2023-03-14T00:39:32;98765.53;;;10.12;100.00
47240;BME280;32978;53.586;10.052;2023-03-14T00:44:29;98762.81;;;10.12;100.00
47240;BME280;32978;53.586;10.052;2023-03-14T00:49:25;98755.00;;;10.14;100.00
47240;BME280;32978;53.586;10.052;2023-03-14T00:54:22;98739.50;;;10.18;100.00
47240;BME280;32978;53.586;10.052;2023-03-14T00:59:19;98753.69;;;10.27;100.00
47240;BME280;32978;53.586;10.052;2023-03-14T01:04:15;98743.78;;;10.39;100.00
47240;BME280;32978;53.586;10.052;2023-03-14T01:09:12;98758.72;;;10.45;100.00
47240;BME280;32978;53.586;10.052;2023-03-14T01:14:10;98762.66;;;10.47;100.00
47240;BME280;32978;53.586;10.052;2023-03-14T01:19:06;98757.25;;;10.51;100.00
47240;BME280;32978;53.586;10.052;2023-03-14T01:24:04;98765.44;;;10.51;100.00
47240;BME280;32978;53.586;10.052;2023-03-14T01:29:02;98760.09;;;10.58;100.00
47240;BME280;32978;53.586;10.052;2023-03-14T01:33:58;98735.09;;;10.56;100.00
47240;BME280;32978;53.586;10.052;2023-03-14T01:38:55;98710.09;;;10.54;100.00
47240;BME280;32978;53.586;10.052;2023-03-14T01:43:51;98681.91;;;10.50;100.00
47240;BME280;32978;53.586;10.052;2023-03-14T01:48:53;98672.75;;;10.39;100.00
47240;BME280;32978;53.586;10.052;2023-03-14T01:53:50;98685.78;;;10.26;100.00
47240;BME280;32978;53.586;10.052;2023-03-14T01:58:49;98693.38;;;10.13;100.00
47240;BME280;32978;53.586;10.052;2023-03-14T02:03:59;98711.16;;;10.03;100.00
47240;BME280;32978;53.586;10.052;2023-03-14T02:08:56;98703.19;;;9.95;100.00
47240;BME280;32978;53.586;10.052;2023-03-14T02:13:53;98685.94;;;9.90;100.00
47240;BME280;32978;53.586;10.052;2023-03-14T02:18:49;98663.97;;;9.83;100.00
47240;BME280;32978;53.586;10.052;2023-03-14T02:28:58;98645.66;;;9.61;100.00
47240;BME280;32978;53.586;10.052;2023-03-14T02:33:55;98646.44;;;9.61;100.00
47240;BME280;32978;53.586;10.052;2023-03-14T02:43:57;98651.81;;;9.58;100.00
47240;BME280;32978;53.586;10.052;2023-03-14T02:49:02;98670.78;;;9.70;100.00
47240;BME280;32978;53.586;10.052;2023-03-14T02:53:59;98670.53;;;9.79;100.00
47240;BME280;32978;53.586;10.052;2023-03-14T02:58:55;98671.75;;;9.81;100.00
47240;BME280;32978;53.586;10.052;2023-03-14T03:03:53;98657.13;;;9.93;100.00
47240;BME280;32978;53.586;10.052;2023-03-14T03:08:50;98661.50;;;9.98;100.00
47240;BME280;32978;53.586;10.052;2023-03-14T03:13:46;98666.81;;;10.10;100.00
47240;BME280;32978;53.586;10.052;2023-03-14T03:18:43;98659.75;;;10.09;100.00
47240;BME280;32978;53.586;10.052;2023-03-14T03:23:39;98653.31;;;9.98;100.00
47240;BME280;32978;53.586;10.052;2023-03-14T03:28:35;98633.91;;;10.03;100.00
47240;BME280;32978;53.586;10.052;2023-03-14T03:33:32;98627.09;;;10.16;100.00
47240;BME280;32978;53.586;10.052;2023-03-14T03:38:28;98617.59;;;10.29;100.00
47240;BME280;32978;53.586;10.052;2023-03-14T03:43:25;98623.53;;;10.35;100.00
47240;BME280;32978;53.586;10.052;2023-03-14T03:48:21;98598.22;;;10.38;100.00
47240;BME280;32978;53.586;10.052;2023-03-14T03:53:18;98570.00;;;10.30;100.00
47240;BME280;32978;53.586;10.052;2023-03-14T03:58:28;98594.16;;;10.28;100.00
47240;BME280;32978;53.586;10.052;2023-03-14T04:03:24;98588.25;;;10.26;100.00
47240;BME280;32978;53.586;10.052;2023-03-14T04:08:22;98584.69;;;10.22;100.00
47240;BME280;32978;53.586;10.052;2023-03-14T04:13:18;98584.13;;;10.13;100.00
47240;BME280;32978;53.586;10.052;2023-03-14T04:18:15;98578.69;;;10.13;100.00
47240;BME280;32978;53.586;10.052;2023-03-14T04:23:11;98577.16;;;10.16;100.00
47240;BME280;32978;53.586;10.052;2023-03-14T04:28:07;98578.56;;;10.06;100.00
47240;BME280;32978;53.586;10.052;2023-03-14T04:33:04;98563.34;;;10.05;100.00
47240;BME280;32978;53.586;10.052;2023-03-14T04:38:00;98558.94;;;9.97;100.00
47240;BME280;32978;53.586;10.052;2023-03-14T04:42:57;98560.50;;;9.98;100.00
47240;BME280;32978;53.586;10.052;2023-03-14T04:47:53;98561.44;;;10.09;100.00
47240;BME280;32978;53.586;10.052;2023-03-14T04:52:50;98564.59;;;10.11;100.00
47240;BME280;32978;53.586;10.052;2023-03-14T04:57:46;98558.34;;;10.10;100.00
47240;BME280;32978;53.586;10.052;2023-03-14T05:02:42;98545.06;;;10.09;100.00
47240;BME280;32978;53.586;10.052;2023-03-14T05:07:39;98532.69;;;10.15;100.00
47240;BME280;32978;53.586;10.052;2023-03-14T05:12:35;98533.53;;;10.19;100.00
47240;BME280;32978;53.586;10.052;2023-03-14T05:17:32;98531.94;;;10.18;100.00
47240;BME280;32978;53.586;10.052;2023-03-14T05:22:29;98572.91;;;9.92;100.00
47240;BME280;32978;53.586;10.052;2023-03-14T05:27:25;98579.38;;;8.79;100.00
47240;BME280;32978;53.586;10.052;2023-03-14T05:32:22;98599.88;;;8.53;100.00
47240;BME280;32978;53.586;10.052;2023-03-14T05:37:18;98594.25;;;8.46;100.00
47240;BME280;32978;53.586;10.052;2023-03-14T05:42:15;98613.25;;;8.42;100.00
47240;BME280;32978;53.586;10.052;2023-03-14T05:47:12;98619.75;;;8.38;100.00
47240;BME280;32978;53.586;10.052;2023-03-14T05:52:08;98612.44;;;8.42;100.00
47240;BME280;32978;53.586;10.052;2023-03-14T05:57:07;98602.72;;;8.41;100.00
47240;BME280;32978;53.586;10.052;2023-03-14T06:02:04;98605.16;;;8.46;100.00
47240;BME280;32978;53.586;10.052;2023-03-14T06:07:00;98598.00;;;8.57;100.00
47240;BME280;32978;53.586;10.052;2023-03-14T06:11:57;98605.91;;;8.62;100.00
47240;BME280;32978;53.586;10.052;2023-03-14T06:16:53;98595.78;;;8.63;100.00
47240;BME280;32978;53.586;10.052;2023-03-14T06:21:50;98602.31;;;8.58;100.00
47240;BME280;32978;53.586;10.052;2023-03-14T06:26:46;98601.63;;;8.61;100.00
47240;BME280;32978;53.586;10.052;2023-03-14T06:31:43;98606.19;;;8.57;100.00
47240;BME280;32978;53.586;10.052;2023-03-14T06:36:39;98622.88;;;8.56;100.00
47240;BME280;32978;53.586;10.052;2023-03-14T06:41:36;98617.38;;;8.52;100.00
47240;BME280;32978;53.586;10.052;2023-03-14T06:46:32;98633.88;;;8.59;100.00
47240;BME280;32978;53.586;10.052;2023-03-14T06:51:29;98639.03;;;8.64;100.00
47240;BME280;32978;53.586;10.052;2023-03-14T06:56:25;98635.00;;;8.58;100.00
47240;BME280;32978;53.586;10.052;2023-03-14T07:01:27;98642.03;;;8.59;100.00
47240;BME280;32978;53.586;10.052;2023-03-14T07:06:24;98628.84;;;8.61;100.00
47240;BME280;32978;53.586;10.052;2023-03-14T07:11:21;98619.63;;;8.66;100.00
47240;BME280;32978;53.586;10.052;2023-03-14T07:16:18;98632.31;;;8.78;100.00
47240;BME280;32978;53.586;10.052;2023-03-14T07:21:14;98623.88;;;8.83;100.00
47240;BME280;32978;53.586;10.052;2023-03-14T07:26:11;98621.00;;;8.95;100.00
47240;BME280;32978;53.586;10.052;2023-03-14T07:31:08;98610.53;;;8.97;100.00
47240;BME280;32978;53.586;10.052;2023-03-14T07:36:04;98622.59;;;8.96;100.00
47240;BME280;32978;53.586;10.052;2023-03-14T07:41:03;98651.56;;;9.04;100.00
47240;BME280;32978;53.586;10.052;2023-03-14T07:46:00;98629.47;;;8.90;100.00
47240;BME280;32978;53.586;10.052;2023-03-14T07:50:57;98628.69;;;8.90;100.00
47240;BME280;32978;53.586;10.052;2023-03-14T07:55:54;98644.78;;;8.79;100.00
47240;BME280;32978;53.586;10.052;2023-03-14T08:00:51;98639.34;;;8.79;100.00
47240;BME280;32978;53.586;10.052;2023-03-14T08:05:49;98645.81;;;8.90;100.00
47240;BME280;32978;53.586;10.052;2023-03-14T08:10:46;98623.59;;;9.08;100.00
47240;BME280;32978;53.586;10.052;2023-03-14T08:15:48;98624.00;;;9.29;100.00
47240;BME280;32978;53.586;10.052;2023-03-14T08:20:45;98625.16;;;9.47;100.00
47240;BME280;32978;53.586;10.052;2023-03-14T08:25:41;98625.84;;;9.44;100.00
47240;BME280;32978;53.586;10.052;2023-03-14T08:30:38;98616.53;;;9.45;100.00
47240;BME280;32978;53.586;10.052;2023-03-14T08:35:34;98624.28;;;9.43;100.00
47240;BME280;32978;53.586;10.052;2023-03-14T08:40:31;98615.09;;;9.52;100.00
47240;BME280;32978;53.586;10.052;2023-03-14T08:45:27;98608.03;;;9.51;100.00
47240;BME280;32978;53.586;10.052;2023-03-14T08:50:24;98628.34;;;9.53;100.00
47240;BME280;32978;53.586;10.052;2023-03-14T08:55:20;98604.97;;;9.52;100.00
47240;BME280;32978;53.586;10.052;2023-03-14T09:00:17;98620.22;;;9.34;100.00
47240;BME280;32978;53.586;10.052;2023-03-14T09:05:14;98633.91;;;9.18;100.00
47240;BME280;32978;53.586;10.052;2023-03-14T09:10:11;98624.44;;;9.12;100.00
47240;BME280;32978;53.586;10.052;2023-03-14T09:15:08;98643.09;;;9.10;100.00
47240;BME280;32978;53.586;10.052;2023-03-14T09:20:05;98621.13;;;9.02;100.00
47240;BME280;32978;53.586;10.052;2023-03-14T09:25:04;98636.78;;;9.05;100.00
47240;BME280;32978;53.586;10.052;2023-03-14T09:30:00;98656.31;;;9.08;100.00
47240;BME280;32978;53.586;10.052;2023-03-14T09:34:57;98637.00;;;9.16;100.00
47240;BME280;32978;53.586;10.052;2023-03-14T09:39:54;98637.44;;;9.38;100.00
47240;BME280;32978;53.586;10.052;2023-03-14T09:44:56;98650.69;;;9.39;100.00
47240;BME280;32978;53.586;10.052;2023-03-14T09:49:55;98662.59;;;9.12;100.00
47240;BME280;32978;53.586;10.052;2023-03-14T09:54:54;98693.56;;;8.84;100.00
47240;BME280;32978;53.586;10.052;2023-03-14T10:00:03;98761.84;;;8.28;100.00
47240;BME280;32978;53.586;10.052;2023-03-14T10:05:18;98770.31;;;7.26;100.00
47240;BME280;32978;53.586;10.052;2023-03-14T10:10:18;98798.09;;;7.07;100.00
47240;BME280;32978;53.586;10.052;2023-03-14T10:15:24;98814.16;;;6.75;100.00
47240;BME280;32978;53.586;10.052;2023-03-14T10:20:39;98827.03;;;6.66;100.00
47240;BME280;32978;53.586;10.052;2023-03-14T10:25:38;98855.72;;;6.42;100.00
47240;BME280;32978;53.586;10.052;2023-03-14T10:35:33;98902.75;;;5.50;100.00
47240;BME280;32978;53.586;10.052;2023-03-14T10:40:32;98923.16;;;5.18;100.00
47240;BME280;32978;53.586;10.052;2023-03-14T10:45:38;98941.06;;;5.01;100.00
47240;BME280;32978;53.586;10.052;2023-03-14T10:50:35;98961.66;;;4.85;100.00
47240;BME280;32978;53.586;10.052;2023-03-14T10:55:42;98985.91;;;4.29;100.00
47240;BME280;32978;53.586;10.052;2023-03-14T11:00:41;99015.19;;;4.18;100.00
47240;BME280;32978;53.586;10.052;2023-03-14T11:05:49;99027.13;;;4.17;100.00
47240;BME280;32978;53.586;10.052;2023-03-14T11:10:54;99026.81;;;4.28;100.00
47240;BME280;32978;53.586;10.052;2023-03-14T11:26:42;99100.09;;;3.91;100.00
47240;BME280;32978;53.586;10.052;2023-03-14T11:31:43;99126.34;;;3.59;100.00
47240;BME280;32978;53.586;10.052;2023-03-14T11:37:01;99140.69;;;3.69;100.00
47240;BME280;32978;53.586;10.052;2023-03-14T11:42:01;99162.94;;;3.97;100.00
47240;BME280;32978;53.586;10.052;2023-03-14T11:47:07;99162.41;;;3.86;100.00
47240;BME280;32978;53.586;10.052;2023-03-14T11:52:14;99180.47;;;3.99;100.00
47240;BME280;32978;53.586;10.052;2023-03-14T11:57:18;99187.44;;;4.40;100.00
47240;BME280;32978;53.586;10.052;2023-03-14T12:02:35;99186.50;;;4.45;100.00
47240;BME280;32978;53.586;10.052;2023-03-14T12:12:43;99182.34;;;4.48;100.00
47240;BME280;32978;53.586;10.052;2023-03-14T12:17:41;99188.72;;;4.34;100.00
47240;BME280;32978;53.586;10.052;2023-03-14T12:23:05;99211.38;;;4.56;100.00
47240;BME280;32978;53.586;10.052;2023-03-14T12:28:18;99225.72;;;4.65;100.00
47240;BME280;32978;53.586;10.052;2023-03-14T12:38:23;99253.56;;;4.48;100.00
47240;BME280;32978;53.586;10.052;2023-03-14T12:43:28;99259.19;;;4.69;100.00
47240;BME280;32978;53.586;10.052;2023-03-14T12:48:26;99279.38;;;4.63;100.00
47240;BME280;32978;53.586;10.052;2023-03-14T12:54:03;99271.00;;;4.82;100.00
47240;BME280;32978;53.586;10.052;2023-03-14T12:59:28;99292.91;;;4.63;100.00
47240;BME280;32978;53.586;10.052;2023-03-14T13:04:42;99313.88;;;4.89;100.00
47240;BME280;32978;53.586;10.052;2023-03-14T13:15:18;99348.28;;;4.88;100.00
47240;BME280;32978;53.586;10.052;2023-03-14T13:20:34;99341.84;;;5.15;100.00
47240;BME280;32978;53.586;10.052;2023-03-14T13:25:33;99346.69;;;5.70;100.00
47240;BME280;32978;53.586;10.052;2023-03-14T13:30:41;99379.56;;;5.60;100.00
47240;BME280;32978;53.586;10.052;2023-03-14T13:35:42;99388.88;;;5.94;100.00
47240;BME280;32978;53.586;10.052;2023-03-14T13:40:43;99383.72;;;5.66;100.00
47240;BME280;32978;53.586;10.052;2023-03-14T13:45:49;99401.25;;;5.78;100.00
47240;BME280;32978;53.586;10.052;2023-03-14T13:50:50;99409.22;;;5.65;100.00
47240;BME280;32978;53.586;10.052;2023-03-14T13:55:49;99413.72;;;5.79;100.00
47240;BME280;32978;53.586;10.052;2023-03-14T14:00:57;99419.75;;;5.58;100.00
47240;BME280;32978;53.586;10.052;2023-03-14T14:05:56;99426.94;;;5.72;100.00
47240;BME280;32978;53.586;10.052;2023-03-14T14:10:58;99442.34;;;5.45;100.00
47240;BME280;32978;53.586;10.052;2023-03-14T14:15:56;99472.06;;;5.50;100.00
47240;BME280;32978;53.586;10.052;2023-03-14T14:20:55;99486.59;;;6.29;100.00
47240;BME280;32978;53.586;10.052;2023-03-14T14:25:52;99494.06;;;5.57;100.00
47240;BME280;32978;53.586;10.052;2023-03-14T14:36:04;99517.69;;;6.23;100.00
47240;BME280;32978;53.586;10.052;2023-03-14T14:41:02;99536.38;;;5.67;100.00
47240;BME280;32978;53.586;10.052;2023-03-14T14:45:59;99565.06;;;5.59;100.00
47240;BME280;32978;53.586;10.052;2023-03-14T14:51:01;99559.41;;;5.47;100.00
47240;BME280;32978;53.586;10.052;2023-03-14T14:56:03;99574.09;;;5.46;100.00
47240;BME280;32978;53.586;10.052;2023-03-14T15:01:22;99582.63;;;6.02;100.00
47240;BME280;32978;53.586;10.052;2023-03-14T15:06:20;99595.22;;;6.64;100.00
47240;BME280;32978;53.586;10.052;2023-03-14T15:11:22;99606.06;;;6.64;100.00
47240;BME280;32978;53.586;10.052;2023-03-14T15:16:22;99615.94;;;6.42;100.00
47240;BME280;32978;53.586;10.052;2023-03-14T15:21:19;99636.53;;;6.52;100.00
47240;BME280;32978;53.586;10.052;2023-03-14T15:26:17;99663.50;;;6.31;100.00
47240;BME280;32978;53.586;10.052;2023-03-14T15:31:16;99659.50;;;6.28;100.00
47240;BME280;32978;53.586;10.052;2023-03-14T15:36:26;99684.47;;;5.99;100.00
47240;BME280;32978;53.586;10.052;2023-03-14T15:41:24;99712.00;;;6.24;100.00
47240;BME280;32978;53.586;10.052;2023-03-14T15:46:21;99713.56;;;5.85;100.00
47240;BME280;32978;53.586;10.052;2023-03-14T15:51:18;99724.38;;;5.76;100.00
47240;BME280;32978;53.586;10.052;2023-03-14T15:56:19;99744.38;;;5.89;100.00
47240;BME280;32978;53.586;10.052;2023-03-14T16:01:16;99749.19;;;5.47;100.00
47240;BME280;32978;53.586;10.052;2023-03-14T16:06:13;99767.31;;;6.05;100.00
47240;BME280;32978;53.586;10.052;2023-03-14T16:11:12;99788.38;;;6.00;100.00
47240;BME280;32978;53.586;10.052;2023-03-14T16:16:09;99781.72;;;6.37;100.00
47240;BME280;32978;53.586;10.052;2023-03-14T16:21:10;99798.88;;;5.79;100.00
47240;BME280;32978;53.586;10.052;2023-03-14T16:26:10;99816.75;;;5.57;100.00
47240;BME280;32978;53.586;10.052;2023-03-14T16:31:09;99828.22;;;5.04;100.00
47240;BME280;32978;53.586;10.052;2023-03-14T16:36:09;99843.75;;;4.84;100.00
47240;BME280;32978;53.586;10.052;2023-03-14T16:41:11;99849.22;;;4.52;100.00
47240;BME280;32978;53.586;10.052;2023-03-14T16:46:13;99855.41;;;4.38;100.00
47240;BME280;32978;53.586;10.052;2023-03-14T16:51:10;99884.19;;;4.34;100.00
47240;BME280;32978;53.586;10.052;2023-03-14T16:56:07;99882.75;;;4.23;100.00
47240;BME280;32978;53.586;10.052;2023-03-14T17:01:10;99888.31;;;4.13;100.00
47240;BME280;32978;53.586;10.052;2023-03-14T17:06:12;99918.25;;;4.03;100.00
47240;BME280;32978;53.586;10.052;2023-03-14T17:11:09;99923.56;;;3.89;100.00
47240;BME280;32978;53.586;10.052;2023-03-14T17:16:06;99954.78;;;3.81;100.00
47240;BME280;32978;53.586;10.052;2023-03-14T17:21:04;99960.84;;;3.73;100.00
47240;BME280;32978;53.586;10.052;2023-03-14T17:26:01;99994.75;;;3.65;100.00
47240;BME280;32978;53.586;10.052;2023-03-14T17:36:02;100006.47;;;3.55;100.00
47240;BME280;32978;53.586;10.052;2023-03-14T17:40:58;100004.41;;;3.47;100.00
47240;BME280;32978;53.586;10.052;2023-03-14T17:45:59;100031.81;;;3.35;100.00
47240;BME280;32978;53.586;10.052;2023-03-14T17:50:56;100032.69;;;3.31;100.00
47240;BME280;32978;53.586;10.052;2023-03-14T17:55:57;100050.28;;;3.28;100.00
47240;BME280;32978;53.586;10.052;2023-03-14T18:00:54;100062.25;;;3.17;100.00
47240;BME280;32978;53.586;10.052;2023-03-14T18:05:51;100077.94;;;3.15;100.00
47240;BME280;32978;53.586;10.052;2023-03-14T18:10:52;100085.53;;;3.13;100.00
47240;BME280;32978;53.586;10.052;2023-03-14T18:15:49;100098.28;;;3.07;100.00
47240;BME280;32978;53.586;10.052;2023-03-14T18:20:49;100114.97;;;3.14;100.00
47240;BME280;32978;53.586;10.052;2023-03-14T18:25:47;100123.03;;;3.20;100.00
47240;BME280;32978;53.586;10.052;2023-03-14T18:30:43;100154.00;;;3.32;100.00
47240;BME280;32978;53.586;10.052;2023-03-14T18:35:48;100177.75;;;2.96;100.00
47240;BME280;32978;53.586;10.052;2023-03-14T18:40:46;100192.47;;;2.74;100.00
47240;BME280;32978;53.586;10.052;2023-03-14T18:45:43;100214.28;;;2.23;100.00
47240;BME280;32978;53.586;10.052;2023-03-14T18:50:40;100210.00;;;1.97;100.00
47240;BME280;32978;53.586;10.052;2023-03-14T18:55:36;100223.00;;;1.79;100.00
47240;BME280;32978;53.586;10.052;2023-03-14T19:00:33;100234.84;;;1.78;100.00
47240;BME280;32978;53.586;10.052;2023-03-14T19:05:31;100237.00;;;1.76;100.00
47240;BME280;32978;53.586;10.052;2023-03-14T19:10:27;100242.66;;;1.90;100.00
47240;BME280;32978;53.586;10.052;2023-03-14T19:15:24;100248.31;;;1.94;100.00
47240;BME280;32978;53.586;10.052;2023-03-14T19:20:20;100258.56;;;1.97;100.00
47240;BME280;32978;53.586;10.052;2023-03-14T19:25:17;100257.47;;;1.93;100.00
47240;BME280;32978;53.586;10.052;2023-03-14T19:30:13;100270.97;;;1.98;100.00
47240;BME280;32978;53.586;10.052;2023-03-14T19:35:10;100276.63;;;1.96;100.00
47240;BME280;32978;53.586;10.052;2023-03-14T19:40:07;100278.78;;;1.99;100.00
47240;BME280;32978;53.586;10.052;2023-03-14T19:45:05;100287.66;;;1.95;100.00
47240;BME280;32978;53.586;10.052;2023-03-14T19:50:02;100294.69;;;2.01;100.00
47240;BME280;32978;53.586;10.052;2023-03-14T19:54:58;100302.22;;;2.24;100.00
47240;BME280;32978;53.586;10.052;2023-03-14T19:59:56;100311.38;;;2.34;100.00
47240;BME280;32978;53.586;10.052;2023-03-14T20:04:54;100322.16;;;2.34;100.00
47240;BME280;32978;53.586;10.052;2023-03-14T20:09:50;100329.19;;;2.35;100.00
47240;BME280;32978;53.586;10.052;2023-03-14T20:14:47;100329.19;;;2.24;100.00
47240;BME280;32978;53.586;10.052;2023-03-14T20:19:43;100346.44;;;2.28;100.00
47240;BME280;32978;53.586;10.052;2023-03-14T20:24:40;100368.56;;;2.36;100.00
47240;BME280;32978;53.586;10.052;2023-03-14T20:29:36;100404.72;;;2.45;100.00
47240;BME280;32978;53.586;10.052;2023-03-14T20:34:33;100433.28;;;1.95;100.00
47240;BME280;32978;53.586;10.052;2023-03-14T20:39:30;100436.91;;;1.42;100.00
47240;BME280;32978;53.586;10.052;2023-03-14T20:44:29;100438.72;;;1.21;100.00
47240;BME280;32978;53.586;10.052;2023-03-14T20:49:26;100455.09;;;1.10;100.00
47240;BME280;32978;53.586;10.052;2023-03-14T20:54:22;100458.25;;;1.01;100.00
47240;BME280;32978;53.586;10.052;2023-03-14T20:59:19;100466.88;;;1.03;100.00
47240;BME280;32978;53.586;10.052;2023-03-14T21:04:16;100467.66;;;0.99;100.00
47240;BME280;32978;53.586;10.052;2023-03-14T21:09:13;100467.91;;;0.97;100.00
47240;BME280;32978;53.586;10.052;2023-03-14T21:14:09;100475.22;;;1.02;100.00
47240;BME280;32978;53.586;10.052;2023-03-14T21:19:06;100484.69;;;1.04;100.00
47240;BME280;32978;53.586;10.052;2023-03-14T21:24:04;100481.44;;;1.02;100.00
47240;BME280;32978;53.586;10.052;2023-03-14T21:29:01;100490.06;;;1.04;100.00
47240;BME280;32978;53.586;10.052;2023-03-14T21:33:58;100509.13;;;0.98;100.00
47240;BME280;32978;53.586;10.052;2023-03-14T21:38:55;100517.72;;;0.95;100.00
47240;BME280;32978;53.586;10.052;2023-03-14T21:43:51;100519.03;;;0.92;100.00
47240;BME280;32978;53.586;10.052;2023-03-14T21:48:49;100514.16;;;0.84;100.00
47240;BME280;32978;53.586;10.052;2023-03-14T21:53:46;100513.66;;;0.92;100.00
47240;BME280;32978;53.586;10.052;2023-03-14T21:58:46;100536.59;;;1.00;100.00
47240;BME280;32978;53.586;10.052;2023-03-14T22:03:43;100533.94;;;1.05;100.00
47240;BME280;32978;53.586;10.052;2023-03-14T22:08:41;100546.13;;;1.18;100.00
47240;BME280;32978;53.586;10.052;2023-03-14T22:13:38;100561.25;;;1.19;100.00
47240;BME280;32978;53.586;10.052;2023-03-14T22:18:34;100568.53;;;0.86;100.00
47240;BME280;32978;53.586;10.052;2023-03-14T22:23:32;100577.16;;;0.88;100.00
47240;BME280;32978;53.586;10.052;2023-03-14T22:28:29;100559.97;;;0.94;100.00
47240;BME280;32978;53.586;10.052;2023-03-14T22:33:26;100569.03;;;0.83;100.00
47240;BME280;32978;53.586;10.052;2023-03-14T22:38:23;100562.47;;;0.69;100.00
47240;BME280;32978;53.586;10.052;2023-03-14T22:43:19;100580.44;;;0.63;100.00
47240;BME280;32978;53.586;10.052;2023-03-14T22:48:16;100581.69;;;0.55;100.00
47240;BME280;32978;53.586;10.052;2023-03-14T22:53:12;100579.00;;;0.55;100.00
47240;BME280;32978;53.586;10.052;2023-03-14T22:58:08;100596.88;;;0.67;100.00
47240;BME280;32978;53.586;10.052;2023-03-14T23:03:05;100602.31;;;0.72;100.00
47240;BME280;32978;53.586;10.052;2023-03-14T23:08:01;100610.84;;;0.63;100.00
47240;BME280;32978;53.586;10.052;2023-03-14T23:12:59;100609.78;;;0.65;100.00
47240;BME280;32978;53.586;10.052;2023-03-14T23:17:56;100612.41;;;0.59;100.00
47240;BME280;32978;53.586;10.052;2023-03-14T23:22:53;100622.38;;;0.59;100.00
47240;BME280;32978;53.586;10.052;2023-03-14T23:27:49;100627.03;;;0.69;100.00
47240;BME280;32978;53.586;10.052;2023-03-14T23:32:49;100621.75;;;0.79;100.00
47240;BME280;32978;53.586;10.052;2023-03-14T23:37:46;100626.63;;;0.82;100.00
47240;BME280;32978;53.586;10.052;2023-03-14T23:42:46;100616.59;;;0.72;100.00
47240;BME280;32978;53.586;10.052;2023-03-14T23:47:43;100638.00;;;0.62;100.00
47240;BME280;32978;53.586;10.052;2023-03-14T23:52:40;100628.69;;;0.70;100.00
47240;BME280;32978;53.586;10.052;2023-03-14T23:57:36;100650.81;;;0.77;100.00
